sensor_id;sensor_type;location;lat;lon;timestamp;P1;P2;P0
76049;PMS7003;64967;50.234;19.224;2024-02-26T00:00:37;83.25;60.25;40.25
76049;PMS7003;64967;50.234;19.224;2024-02-26T00:03:04;73.75;58.00;38.25
76049;PMS7003;64967;50.234;19.224;2024-02-26T00:05:31;74.00;56.00;37.00
76049;PMS7003;64967;50.234;19.224;2024-02-26T00:07:58;69.00;53.00;35.00
76049;PMS7003;64967;50.234;19.224;2024-02-26T00:10:28;47.00;39.33;27.67
76049;PMS7003;64967;50.234;19.224;2024-02-26T00:12:55;52.33;41.00;27.00
76049;PMS7003;64967;50.234;19.224;2024-02-26T00:15:22;60.67;48.00;32.00
76049;PMS7003;64967;50.234;19.224;2024-02-26T00:17:48;44.67;39.33;26.33
76049;PMS7003;64967;50.234;19.224;2024-02-26T00:20:15;42.00;35.00;23.00
76049;PMS7003;64967;50.234;19.224;2024-02-26T00:22:42;45.00;40.00;23.67
76049;PMS7003;64967;50.234;19.224;2024-02-26T00:25:08;40.33;35.33;25.67
76049;PMS7003;64967;50.234;19.224;2024-02-26T00:27:35;47.00;36.33;26.67
76049;PMS7003;64967;50.234;19.224;2024-02-26T00:30:02;51.33;40.00;27.00
76049;PMS7003;64967;50.234;19.224;2024-02-26T00:32:29;46.33;34.00;17.67
76049;PMS7003;64967;50.234;19.224;2024-02-26T00:34:55;61.33;43.33;27.00
76049;PMS7003;64967;50.234;19.224;2024-02-26T00:37:22;49.67;40.00;26.33
76049;PMS7003;64967;50.234;19.224;2024-02-26T00:39:49;41.67;36.33;23.00
76049;PMS7003;64967;50.234;19.224;2024-02-26T00:42:16;63.33;51.00;33.67
76049;PMS7003;64967;50.234;19.224;2024-02-26T00:44:42;61.00;46.00;30.33
76049;PMS7003;64967;50.234;19.224;2024-02-26T00:47:09;62.33;44.33;29.33
76049;PMS7003;64967;50.234;19.224;2024-02-26T00:49:36;51.67;43.00;27.33
76049;PMS7003;64967;50.234;19.224;2024-02-26T00:52:03;44.67;40.67;27.00
76049;PMS7003;64967;50.234;19.224;2024-02-26T00:54:30;61.00;43.33;29.00
76049;PMS7003;64967;50.234;19.224;2024-02-26T00:56:57;64.00;45.00;30.00
76049;PMS7003;64967;50.234;19.224;2024-02-26T00:59:24;55.00;42.67;28.00
76049;PMS7003;64967;50.234;19.224;2024-02-26T01:01:50;39.67;34.00;23.67
76049;PMS7003;64967;50.234;19.224;2024-02-26T01:04:17;60.33;40.67;27.67
76049;PMS7003;64967;50.234;19.224;2024-02-26T01:06:44;44.33;36.00;24.00
76049;PMS7003;64967;50.234;19.224;2024-02-26T01:09:10;32.00;28.00;16.33
76049;PMS7003;64967;50.234;19.224;2024-02-26T01:11:37;40.67;35.67;21.00
76049;PMS7003;64967;50.234;19.224;2024-02-26T01:14:04;34.00;30.67;20.33
76049;PMS7003;64967;50.234;19.224;2024-02-26T01:16:31;30.33;24.33;17.00
76049;PMS7003;64967;50.234;19.224;2024-02-26T01:18:58;30.00;24.00;18.33
76049;PMS7003;64967;50.234;19.224;2024-02-26T01:21:25;39.00;31.67;21.00
76049;PMS7003;64967;50.234;19.224;2024-02-26T01:23:53;56.33;43.00;31.00
76049;PMS7003;64967;50.234;19.224;2024-02-26T01:26:20;81.50;62.25;41.25
76049;PMS7003;64967;50.234;19.224;2024-02-26T01:28:48;96.25;68.25;44.00
76049;PMS7003;64967;50.234;19.224;2024-02-26T01:31:15;74.50;57.00;38.00
76049;PMS7003;64967;50.234;19.224;2024-02-26T01:33:41;77.50;59.25;37.00
76049;PMS7003;64967;50.234;19.224;2024-02-26T01:36:08;66.67;53.67;36.00
76049;PMS7003;64967;50.234;19.224;2024-02-26T01:38:35;62.67;49.00;31.00
76049;PMS7003;64967;50.234;19.224;2024-02-26T01:41:02;54.33;42.67;27.00
76049;PMS7003;64967;50.234;19.224;2024-02-26T01:43:29;43.00;38.67;28.67
76049;PMS7003;64967;50.234;19.224;2024-02-26T01:45:55;34.67;31.33;21.67
76049;PMS7003;64967;50.234;19.224;2024-02-26T01:48:22;45.67;39.33;27.00
76049;PMS7003;64967;50.234;19.224;2024-02-26T01:50:49;41.00;37.00;25.00
76049;PMS7003;64967;50.234;19.224;2024-02-26T01:53:16;30.33;25.33;16.00
76049;PMS7003;64967;50.234;19.224;2024-02-26T01:55:45;38.00;32.33;23.00
76049;PMS7003;64967;50.234;19.224;2024-02-26T01:58:11;65.00;51.00;35.00
76049;PMS7003;64967;50.234;19.224;2024-02-26T02:00:40;61.33;48.00;30.67
76049;PMS7003;64967;50.234;19.224;2024-02-26T02:03:06;46.00;40.00;27.00
76049;PMS7003;64967;50.234;19.224;2024-02-26T02:05:33;50.67;41.00;26.67
76049;PMS7003;64967;50.234;19.224;2024-02-26T02:08:09;46.67;43.33;28.67
76049;PMS7003;64967;50.234;19.224;2024-02-26T02:10:46;41.33;37.33;27.00
76049;PMS7003;64967;50.234;19.224;2024-02-26T02:13:16;43.67;37.00;26.00
76049;PMS7003;64967;50.234;19.224;2024-02-26T02:15:43;39.00;33.00;25.00
76049;PMS7003;64967;50.234;19.224;2024-02-26T02:18:09;48.33;41.33;29.33
76049;PMS7003;64967;50.234;19.224;2024-02-26T02:20:36;46.00;37.00;25.33
76049;PMS7003;64967;50.234;19.224;2024-02-26T02:23:03;45.00;32.00;20.00
76049;PMS7003;64967;50.234;19.224;2024-02-26T02:25:30;49.00;41.67;29.67
76049;PMS7003;64967;50.234;19.224;2024-02-26T02:27:57;45.67;39.33;27.00
76049;PMS7003;64967;50.234;19.224;2024-02-26T02:30:24;36.33;32.00;20.00
76049;PMS7003;64967;50.234;19.224;2024-02-26T02:32:54;45.00;33.00;22.00
76049;PMS7003;64967;50.234;19.224;2024-02-26T02:35:23;64.67;46.33;31.00
76049;PMS7003;64967;50.234;19.224;2024-02-26T02:37:51;46.67;39.33;27.00
76049;PMS7003;64967;50.234;19.224;2024-02-26T02:40:18;48.33;37.00;27.00
76049;PMS7003;64967;50.234;19.224;2024-02-26T02:42:45;31.67;21.33;15.00
76049;PMS7003;64967;50.234;19.224;2024-02-26T02:45:12;31.67;27.00;18.33
76049;PMS7003;64967;50.234;19.224;2024-02-26T02:47:39;44.00;35.67;26.00
76049;PMS7003;64967;50.234;19.224;2024-02-26T02:50:06;41.67;29.33;19.00
76049;PMS7003;64967;50.234;19.224;2024-02-26T02:52:33;60.67;46.33;32.00
76049;PMS7003;64967;50.234;19.224;2024-02-26T02:54:59;50.00;41.33;28.33
76049;PMS7003;64967;50.234;19.224;2024-02-26T02:57:26;54.00;44.00;30.00
76049;PMS7003;64967;50.234;19.224;2024-02-26T02:59:53;68.00;50.75;34.00
76049;PMS7003;64967;50.234;19.224;2024-02-26T03:02:19;54.67;45.33;30.33
76049;PMS7003;64967;50.234;19.224;2024-02-26T03:04:46;52.33;42.00;27.00
76049;PMS7003;64967;50.234;19.224;2024-02-26T03:07:13;47.00;37.67;24.00
76049;PMS7003;64967;50.234;19.224;2024-02-26T03:09:39;47.67;42.33;29.00
76049;PMS7003;64967;50.234;19.224;2024-02-26T03:12:07;38.00;35.33;27.00
76049;PMS7003;64967;50.234;19.224;2024-02-26T03:14:34;48.33;41.00;30.00
76049;PMS7003;64967;50.234;19.224;2024-02-26T03:17:00;64.67;48.67;32.00
76049;PMS7003;64967;50.234;19.224;2024-02-26T03:19:27;69.25;52.75;32.75
76049;PMS7003;64967;50.234;19.224;2024-02-26T03:21:54;56.33;41.00;29.33
76049;PMS7003;64967;50.234;19.224;2024-02-26T03:24:21;40.67;37.00;26.33
76049;PMS7003;64967;50.234;19.224;2024-02-26T03:26:47;40.33;29.33;21.00
76049;PMS7003;64967;50.234;19.224;2024-02-26T03:29:14;32.00;24.33;15.00
76049;PMS7003;64967;50.234;19.224;2024-02-26T03:31:41;29.33;26.00;17.00
76049;PMS7003;64967;50.234;19.224;2024-02-26T03:34:08;38.67;36.67;25.33
76049;PMS7003;64967;50.234;19.224;2024-02-26T03:36:35;55.00;44.00;28.00
76049;PMS7003;64967;50.234;19.224;2024-02-26T03:39:02;63.00;44.67;30.00
76049;PMS7003;64967;50.234;19.224;2024-02-26T03:41:34;49.33;42.67;30.00
76049;PMS7003;64967;50.234;19.224;2024-02-26T03:44:01;67.67;50.00;33.00
76049;PMS7003;64967;50.234;19.224;2024-02-26T03:46:28;56.00;41.75;27.00
76049;PMS7003;64967;50.234;19.224;2024-02-26T03:48:55;72.75;57.00;37.00
76049;PMS7003;64967;50.234;19.224;2024-02-26T03:51:22;71.25;56.50;38.00
76049;PMS7003;64967;50.234;19.224;2024-02-26T03:53:49;76.25;58.50;38.75
76049;PMS7003;64967;50.234;19.224;2024-02-26T03:56:16;70.75;54.00;33.00
76049;PMS7003;64967;50.234;19.224;2024-02-26T03:58:42;67.67;44.67;26.67
76049;PMS7003;64967;50.234;19.224;2024-02-26T04:01:09;67.25;53.50;35.25
76049;PMS7003;64967;50.234;19.224;2024-02-26T04:03:36;62.75;51.75;34.75
76049;PMS7003;64967;50.234;19.224;2024-02-26T04:06:03;72.00;50.00;33.00
76049;PMS7003;64967;50.234;19.224;2024-02-26T04:08:30;63.67;51.33;34.33
76049;PMS7003;64967;50.234;19.224;2024-02-26T04:10:57;50.00;44.33;32.00
76049;PMS7003;64967;50.234;19.224;2024-02-26T04:13:24;52.67;41.00;29.00
76049;PMS7003;64967;50.234;19.224;2024-02-26T04:15:51;50.67;42.00;28.00
76049;PMS7003;64967;50.234;19.224;2024-02-26T04:18:17;42.67;39.33;25.00
76049;PMS7003;64967;50.234;19.224;2024-02-26T04:20:44;51.33;40.33;27.00
76049;PMS7003;64967;50.234;19.224;2024-02-26T04:23:11;46.67;41.67;30.00
76049;PMS7003;64967;50.234;19.224;2024-02-26T04:25:38;59.33;44.67;29.33
76049;PMS7003;64967;50.234;19.224;2024-02-26T04:28:04;61.33;41.33;29.00
76049;PMS7003;64967;50.234;19.224;2024-02-26T04:30:31;35.00;30.00;19.00
76049;PMS7003;64967;50.234;19.224;2024-02-26T04:32:58;60.67;48.33;32.67
76049;PMS7003;64967;50.234;19.224;2024-02-26T04:35:25;69.25;53.25;36.00
76049;PMS7003;64967;50.234;19.224;2024-02-26T04:37:52;77.25;61.75;40.50
76049;PMS7003;64967;50.234;19.224;2024-02-26T04:40:18;68.50;55.75;37.75
76049;PMS7003;64967;50.234;19.224;2024-02-26T04:42:45;75.75;59.50;38.50
76049;PMS7003;64967;50.234;19.224;2024-02-26T04:45:12;79.00;60.00;39.00
76049;PMS7003;64967;50.234;19.224;2024-02-26T04:47:38;78.50;59.50;38.25
76049;PMS7003;64967;50.234;19.224;2024-02-26T04:50:06;80.50;60.25;39.25
76049;PMS7003;64967;50.234;19.224;2024-02-26T04:52:33;70.75;55.50;37.75
76049;PMS7003;64967;50.234;19.224;2024-02-26T04:54:59;81.25;62.00;39.75
76049;PMS7003;64967;50.234;19.224;2024-02-26T04:57:26;80.00;61.00;39.50
76049;PMS7003;64967;50.234;19.224;2024-02-26T04:59:53;78.25;59.00;39.00
76049;PMS7003;64967;50.234;19.224;2024-02-26T05:02:20;71.75;52.75;34.00
76049;PMS7003;64967;50.234;19.224;2024-02-26T05:04:46;74.25;53.75;34.00
76049;PMS7003;64967;50.234;19.224;2024-02-26T05:07:13;64.33;49.00;31.00
76049;PMS7003;64967;50.234;19.224;2024-02-26T05:09:40;76.00;52.33;35.33
76049;PMS7003;64967;50.234;19.224;2024-02-26T05:12:08;65.67;49.33;33.00
76049;PMS7003;64967;50.234;19.224;2024-02-26T05:14:35;58.67;47.00;31.67
76049;PMS7003;64967;50.234;19.224;2024-02-26T05:17:02;53.67;42.00;28.33
76049;PMS7003;64967;50.234;19.224;2024-02-26T05:19:29;45.33;39.00;28.00
76049;PMS7003;64967;50.234;19.224;2024-02-26T05:21:56;65.67;44.00;29.00
76049;PMS7003;64967;50.234;19.224;2024-02-26T05:24:23;49.00;42.33;28.00
76049;PMS7003;64967;50.234;19.224;2024-02-26T05:26:50;61.00;46.00;30.00
76049;PMS7003;64967;50.234;19.224;2024-02-26T05:29:16;57.00;42.33;29.00
76049;PMS7003;64967;50.234;19.224;2024-02-26T05:31:43;47.67;39.33;28.00
76049;PMS7003;64967;50.234;19.224;2024-02-26T05:34:10;55.67;44.33;30.00
76049;PMS7003;64967;50.234;19.224;2024-02-26T05:36:37;79.25;57.00;39.00
76049;PMS7003;64967;50.234;19.224;2024-02-26T05:39:05;81.75;60.75;40.75
76049;PMS7003;64967;50.234;19.224;2024-02-26T05:41:31;89.00;66.50;44.25
76049;PMS7003;64967;50.234;19.224;2024-02-26T05:43:59;82.25;64.75;45.00
76049;PMS7003;64967;50.234;19.224;2024-02-26T05:46:25;85.50;61.75;40.75
76049;PMS7003;64967;50.234;19.224;2024-02-26T05:48:53;82.25;63.25;42.25
76049;PMS7003;64967;50.234;19.224;2024-02-26T05:51:20;94.00;70.75;46.75
76049;PMS7003;64967;50.234;19.224;2024-02-26T05:53:48;91.00;66.50;43.00
76049;PMS7003;64967;50.234;19.224;2024-02-26T05:56:23;90.25;64.50;42.50
76049;PMS7003;64967;50.234;19.224;2024-02-26T05:58:50;82.25;59.25;38.75
76049;PMS7003;64967;50.234;19.224;2024-02-26T06:01:18;65.50;50.00;35.50
76049;PMS7003;64967;50.234;19.224;2024-02-26T06:03:45;52.33;44.00;31.33
76049;PMS7003;64967;50.234;19.224;2024-02-26T06:06:12;39.67;30.67;21.67
76049;PMS7003;64967;50.234;19.224;2024-02-26T06:08:42;42.67;36.67;25.00
76049;PMS7003;64967;50.234;19.224;2024-02-26T06:11:09;43.33;36.00;21.33
76049;PMS7003;64967;50.234;19.224;2024-02-26T06:13:36;63.00;49.67;33.00
76049;PMS7003;64967;50.234;19.224;2024-02-26T06:16:02;68.33;49.00;31.67
76049;PMS7003;64967;50.234;19.224;2024-02-26T06:18:30;63.00;44.00;30.00
76049;PMS7003;64967;50.234;19.224;2024-02-26T06:20:57;52.33;44.67;30.00
76049;PMS7003;64967;50.234;19.224;2024-02-26T06:23:24;47.67;41.00;27.67
76049;PMS7003;64967;50.234;19.224;2024-02-26T06:25:50;51.33;44.00;30.00
76049;PMS7003;64967;50.234;19.224;2024-02-26T06:28:17;54.00;45.00;30.00
76049;PMS7003;64967;50.234;19.224;2024-02-26T06:30:44;57.67;44.33;27.00
76049;PMS7003;64967;50.234;19.224;2024-02-26T06:33:12;47.33;40.33;26.33
76049;PMS7003;64967;50.234;19.224;2024-02-26T06:35:40;59.00;44.00;30.00
76049;PMS7003;64967;50.234;19.224;2024-02-26T06:38:08;60.67;45.67;31.00
76049;PMS7003;64967;50.234;19.224;2024-02-26T06:40:35;50.00;42.00;27.00
76049;PMS7003;64967;50.234;19.224;2024-02-26T06:43:02;53.33;43.33;27.00
76049;PMS7003;64967;50.234;19.224;2024-02-26T06:45:29;44.67;37.00;27.00
76049;PMS7003;64967;50.234;19.224;2024-02-26T06:47:56;41.00;35.00;24.33
76049;PMS7003;64967;50.234;19.224;2024-02-26T06:50:23;60.00;40.67;29.00
76049;PMS7003;64967;50.234;19.224;2024-02-26T06:52:49;51.33;39.67;28.67
76049;PMS7003;64967;50.234;19.224;2024-02-26T06:55:16;54.00;42.33;29.33
76049;PMS7003;64967;50.234;19.224;2024-02-26T06:57:43;37.33;32.67;23.00
76049;PMS7003;64967;50.234;19.224;2024-02-26T07:00:10;45.33;38.00;25.67
76049;PMS7003;64967;50.234;19.224;2024-02-26T07:02:41;39.67;35.67;25.00
76049;PMS7003;64967;50.234;19.224;2024-02-26T07:05:08;40.33;34.00;22.00
76049;PMS7003;64967;50.234;19.224;2024-02-26T07:07:35;41.00;37.00;25.00
76049;PMS7003;64967;50.234;19.224;2024-02-26T07:10:02;42.67;33.00;22.33
76049;PMS7003;64967;50.234;19.224;2024-02-26T07:12:30;37.67;26.67;21.67
76049;PMS7003;64967;50.234;19.224;2024-02-26T07:14:57;26.00;25.00;19.25
76049;PMS7003;64967;50.234;19.224;2024-02-26T07:17:24;24.25;22.50;16.00
76049;PMS7003;64967;50.234;19.224;2024-02-26T07:19:51;22.00;21.00;16.00
76049;PMS7003;64967;50.234;19.224;2024-02-26T07:22:18;24.00;20.75;15.50
76049;PMS7003;64967;50.234;19.224;2024-02-26T07:24:44;24.00;18.50;11.50
76049;PMS7003;64967;50.234;19.224;2024-02-26T07:27:11;25.00;21.00;15.00
76049;PMS7003;64967;50.234;19.224;2024-02-26T07:29:38;21.25;17.50;12.50
76049;PMS7003;64967;50.234;19.224;2024-02-26T07:32:05;29.00;25.00;18.25
76049;PMS7003;64967;50.234;19.224;2024-02-26T07:34:32;22.50;19.00;11.75
76049;PMS7003;64967;50.234;19.224;2024-02-26T07:36:59;28.25;22.75;16.00
76049;PMS7003;64967;50.234;19.224;2024-02-26T07:39:26;25.25;18.50;12.00
76049;PMS7003;64967;50.234;19.224;2024-02-26T07:41:52;36.75;25.75;17.50
76049;PMS7003;64967;50.234;19.224;2024-02-26T07:44:20;22.25;22.00;15.75
76049;PMS7003;64967;50.234;19.224;2024-02-26T07:46:47;25.75;22.50;15.00
76049;PMS7003;64967;50.234;19.224;2024-02-26T07:49:13;33.00;23.75;17.00
76049;PMS7003;64967;50.234;19.224;2024-02-26T07:51:40;31.00;26.50;19.00
76049;PMS7003;64967;50.234;19.224;2024-02-26T07:54:07;26.75;24.50;16.75
76049;PMS7003;64967;50.234;19.224;2024-02-26T07:56:34;22.50;21.00;16.00
76049;PMS7003;64967;50.234;19.224;2024-02-26T07:59:01;27.75;21.50;15.25
76049;PMS7003;64967;50.234;19.224;2024-02-26T08:01:28;24.75;22.00;15.75
76049;PMS7003;64967;50.234;19.224;2024-02-26T08:03:54;21.00;20.25;14.25
76049;PMS7003;64967;50.234;19.224;2024-02-26T08:06:22;26.75;21.75;15.00
76049;PMS7003;64967;50.234;19.224;2024-02-26T08:08:49;25.00;20.00;14.75
76049;PMS7003;64967;50.234;19.224;2024-02-26T08:11:16;25.25;21.75;16.50
76049;PMS7003;64967;50.234;19.224;2024-02-26T08:13:43;17.25;17.25;11.00
76049;PMS7003;64967;50.234;19.224;2024-02-26T08:16:10;22.00;16.75;9.00
76049;PMS7003;64967;50.234;19.224;2024-02-26T08:18:37;21.00;18.25;14.00
76049;PMS7003;64967;50.234;19.224;2024-02-26T08:21:04;19.50;18.50;13.00
76049;PMS7003;64967;50.234;19.224;2024-02-26T08:23:30;18.75;14.75;12.25
76049;PMS7003;64967;50.234;19.224;2024-02-26T08:25:58;14.75;14.00;10.25
76049;PMS7003;64967;50.234;19.224;2024-02-26T08:28:24;18.00;15.00;10.50
76049;PMS7003;64967;50.234;19.224;2024-02-26T08:30:51;17.75;16.00;11.50
76049;PMS7003;64967;50.234;19.224;2024-02-26T08:33:18;20.50;18.25;14.00
76049;PMS7003;64967;50.234;19.224;2024-02-26T08:35:45;18.00;15.75;12.25
76049;PMS7003;64967;50.234;19.224;2024-02-26T08:38:11;19.75;17.50;14.00
76049;PMS7003;64967;50.234;19.224;2024-02-26T08:40:38;13.00;10.25;8.00
76049;PMS7003;64967;50.234;19.224;2024-02-26T08:43:07;20.50;18.25;14.75
76049;PMS7003;64967;50.234;19.224;2024-02-26T08:48:10;17.25;14.75;12.00
76049;PMS7003;64967;50.234;19.224;2024-02-26T08:50:37;20.75;18.00;11.25
76049;PMS7003;64967;50.234;19.224;2024-02-26T08:53:03;19.00;16.25;13.25
76049;PMS7003;64967;50.234;19.224;2024-02-26T08:55:33;19.50;16.00;10.50
76049;PMS7003;64967;50.234;19.224;2024-02-26T08:58:00;18.25;16.00;13.00
76049;PMS7003;64967;50.234;19.224;2024-02-26T09:00:26;22.50;17.50;12.75
76049;PMS7003;64967;50.234;19.224;2024-02-26T09:02:53;16.00;14.00;9.25
76049;PMS7003;64967;50.234;19.224;2024-02-26T09:05:21;12.50;10.00;7.50
76049;PMS7003;64967;50.234;19.224;2024-02-26T09:07:47;8.00;6.00;5.75
76049;PMS7003;64967;50.234;19.224;2024-02-26T09:10:14;8.75;7.25;5.00
76049;PMS7003;64967;50.234;19.224;2024-02-26T09:12:41;8.75;7.75;7.00
76049;PMS7003;64967;50.234;19.224;2024-02-26T09:15:08;6.75;5.00;5.00
76049;PMS7003;64967;50.234;19.224;2024-02-26T09:17:35;5.75;4.75;4.50
76049;PMS7003;64967;50.234;19.224;2024-02-26T09:20:02;4.00;3.50;2.75
76049;PMS7003;64967;50.234;19.224;2024-02-26T09:22:29;10.00;6.00;3.00
76049;PMS7003;64967;50.234;19.224;2024-02-26T09:24:56;3.25;2.00;2.00
76049;PMS7003;64967;50.234;19.224;2024-02-26T09:27:22;2.75;2.25;2.00
76049;PMS7003;64967;50.234;19.224;2024-02-26T09:29:50;10.75;8.50;5.00
76049;PMS7003;64967;50.234;19.224;2024-02-26T09:32:17;5.25;4.25;4.00
76049;PMS7003;64967;50.234;19.224;2024-02-26T09:34:44;5.50;3.50;3.25
76049;PMS7003;64967;50.234;19.224;2024-02-26T09:37:11;4.75;4.00;3.00
76049;PMS7003;64967;50.234;19.224;2024-02-26T09:39:47;3.00;3.00;3.00
76049;PMS7003;64967;50.234;19.224;2024-02-26T09:42:14;2.00;2.00;1.25
76049;PMS7003;64967;50.234;19.224;2024-02-26T09:44:46;2.00;2.00;1.00
76049;PMS7003;64967;50.234;19.224;2024-02-26T09:47:17;2.25;2.25;2.00
76049;PMS7003;64967;50.234;19.224;2024-02-26T09:49:46;2.25;2.25;2.00
76049;PMS7003;64967;50.234;19.224;2024-02-26T09:52:15;4.00;4.00;3.00
76049;PMS7003;64967;50.234;19.224;2024-02-26T09:54:46;5.00;5.00;3.25
76049;PMS7003;64967;50.234;19.224;2024-02-26T09:57:13;2.00;2.00;2.00
76049;PMS7003;64967;50.234;19.224;2024-02-26T09:59:43;4.00;3.25;2.75
76049;PMS7003;64967;50.234;19.224;2024-02-26T10:02:12;6.00;4.00;3.00
76049;PMS7003;64967;50.234;19.224;2024-02-26T10:04:40;3.25;2.75;2.00
76049;PMS7003;64967;50.234;19.224;2024-02-26T10:07:11;4.00;4.00;3.00
76049;PMS7003;64967;50.234;19.224;2024-02-26T10:09:39;2.75;2.25;2.00
76049;PMS7003;64967;50.234;19.224;2024-02-26T10:12:07;3.25;2.00;2.00
76049;PMS7003;64967;50.234;19.224;2024-02-26T10:14:37;2.25;2.25;1.75
76049;PMS7003;64967;50.234;19.224;2024-02-26T10:17:04;2.00;2.00;2.00
76049;PMS7003;64967;50.234;19.224;2024-02-26T10:19:34;3.00;3.00;2.75
76049;PMS7003;64967;50.234;19.224;2024-02-26T10:22:04;3.00;3.00;2.50
76049;PMS7003;64967;50.234;19.224;2024-02-26T10:24:32;2.75;2.75;2.25
76049;PMS7003;64967;50.234;19.224;2024-02-26T10:27:01;3.00;3.00;3.00
76049;PMS7003;64967;50.234;19.224;2024-02-26T10:29:28;2.75;2.00;1.00
76049;PMS7003;64967;50.234;19.224;2024-02-26T10:31:55;2.75;2.75;2.00
76049;PMS7003;64967;50.234;19.224;2024-02-26T10:34:22;4.25;2.75;2.00
76049;PMS7003;64967;50.234;19.224;2024-02-26T10:36:49;2.00;2.00;2.00
76049;PMS7003;64967;50.234;19.224;2024-02-26T10:39:20;2.50;2.00;2.00
76049;PMS7003;64967;50.234;19.224;2024-02-26T10:41:47;1.00;1.00;1.00
76049;PMS7003;64967;50.234;19.224;2024-02-26T10:44:14;3.25;2.75;1.00
76049;PMS7003;64967;50.234;19.224;2024-02-26T10:46:44;2.75;2.50;1.75
76049;PMS7003;64967;50.234;19.224;2024-02-26T10:49:14;1.50;1.50;1.00
76049;PMS7003;64967;50.234;19.224;2024-02-26T10:51:45;1.00;1.00;1.00
76049;PMS7003;64967;50.234;19.224;2024-02-26T10:54:15;1.33;1.00;1.00
76049;PMS7003;64967;50.234;19.224;2024-02-26T10:56:43;1.00;1.00;0.00
76049;PMS7003;64967;50.234;19.224;2024-02-26T10:59:17;0.75;0.75;0.75
76049;PMS7003;64967;50.234;19.224;2024-02-26T11:01:51;1.00;1.00;1.00
76049;PMS7003;64967;50.234;19.224;2024-02-26T11:04:18;0.33;0.33;0.00
76049;PMS7003;64967;50.234;19.224;2024-02-26T11:06:48;1.00;0.00;0.00
76049;PMS7003;64967;50.234;19.224;2024-02-26T11:09:16;1.00;1.00;1.00
76049;PMS7003;64967;50.234;19.224;2024-02-26T11:11:46;0.00;0.00;0.00
76049;PMS7003;64967;50.234;19.224;2024-02-26T11:14:14;1.00;1.00;1.00
76049;PMS7003;64967;50.234;19.224;2024-02-26T11:16:42;3.00;2.00;2.00
76049;PMS7003;64967;50.234;19.224;2024-02-26T11:19:09;3.50;3.00;3.00
76049;PMS7003;64967;50.234;19.224;2024-02-26T11:21:39;3.50;1.50;1.00
76049;PMS7003;64967;50.234;19.224;2024-02-26T11:24:12;1.25;1.00;1.00
76049;PMS7003;64967;50.234;19.224;2024-02-26T11:26:54;3.25;2.00;2.00
76049;PMS7003;64967;50.234;19.224;2024-02-26T11:29:46;2.00;2.00;1.50
76049;PMS7003;64967;50.234;19.224;2024-02-26T11:32:16;1.25;1.25;1.00
76049;PMS7003;64967;50.234;19.224;2024-02-26T11:34:44;2.25;1.50;1.00
76049;PMS7003;64967;50.234;19.224;2024-02-26T11:37:12;3.00;2.00;2.00
76049;PMS7003;64967;50.234;19.224;2024-02-26T11:39:42;1.00;1.00;1.00
76049;PMS7003;64967;50.234;19.224;2024-02-26T11:42:13;2.50;2.50;2.00
76049;PMS7003;64967;50.234;19.224;2024-02-26T11:44:41;4.00;3.00;2.75
76049;PMS7003;64967;50.234;19.224;2024-02-26T11:47:18;3.75;2.75;2.50
76049;PMS7003;64967;50.234;19.224;2024-02-26T11:49:45;3.00;3.00;2.00
76049;PMS7003;64967;50.234;19.224;2024-02-26T11:52:13;4.00;2.75;2.00
76049;PMS7003;64967;50.234;19.224;2024-02-26T12:02:52;1.00;0.75;0.00
76049;PMS7003;64967;50.234;19.224;2024-02-26T12:05:25;2.00;2.00;2.00
76049;PMS7003;64967;50.234;19.224;2024-02-26T12:12:53;2.00;2.00;2.00
76049;PMS7003;64967;50.234;19.224;2024-02-26T12:15:31;3.00;3.00;2.50
76049;PMS7003;64967;50.234;19.224;2024-02-26T12:18:01;3.75;3.75;3.00
76049;PMS7003;64967;50.234;19.224;2024-02-26T12:20:29;2.25;2.25;1.75
76049;PMS7003;64967;50.234;19.224;2024-02-26T12:22:56;2.25;2.00;1.25
76049;PMS7003;64967;50.234;19.224;2024-02-26T12:25:24;1.00;0.00;0.00
76049;PMS7003;64967;50.234;19.224;2024-02-26T12:27:55;2.00;1.25;1.00
76049;PMS7003;64967;50.234;19.224;2024-02-26T12:30:22;5.75;4.00;3.00
76049;PMS7003;64967;50.234;19.224;2024-02-26T12:32:52;3.00;3.00;3.00
76049;PMS7003;64967;50.234;19.224;2024-02-26T12:35:23;2.00;1.25;1.00
76049;PMS7003;64967;50.234;19.224;2024-02-26T12:37:51;3.00;2.50;2.00
76049;PMS7003;64967;50.234;19.224;2024-02-26T12:40:20;4.25;4.00;3.00
76049;PMS7003;64967;50.234;19.224;2024-02-26T12:42:47;6.00;5.25;4.00
76049;PMS7003;64967;50.234;19.224;2024-02-26T12:45:14;5.50;5.00;4.00
76049;PMS7003;64967;50.234;19.224;2024-02-26T12:47:43;5.25;4.00;3.00
76049;PMS7003;64967;50.234;19.224;2024-02-26T12:50:12;5.75;5.00;4.00
76049;PMS7003;64967;50.234;19.224;2024-02-26T12:52:40;5.50;5.50;4.00
76049;PMS7003;64967;50.234;19.224;2024-02-26T12:55:10;71.00;51.50;33.00
76049;PMS7003;64967;50.234;19.224;2024-02-26T12:57:40;46.75;35.50;24.50
76049;PMS7003;64967;50.234;19.224;2024-02-26T13:00:11;63.75;49.50;34.25
76049;PMS7003;64967;50.234;19.224;2024-02-26T13:02:41;49.75;39.75;28.00
76049;PMS7003;64967;50.234;19.224;2024-02-26T13:05:12;21.00;17.00;15.75
76049;PMS7003;64967;50.234;19.224;2024-02-26T13:07:41;15.50;12.25;9.75
76049;PMS7003;64967;50.234;19.224;2024-02-26T13:10:09;17.50;15.25;13.00
76049;PMS7003;64967;50.234;19.224;2024-02-26T13:12:43;11.00;11.00;9.75
76049;PMS7003;64967;50.234;19.224;2024-02-26T13:15:14;12.00;12.00;8.75
76049;PMS7003;64967;50.234;19.224;2024-02-26T13:17:42;7.75;7.00;6.00
76049;PMS7003;64967;50.234;19.224;2024-02-26T13:20:09;7.50;7.50;6.50
76049;PMS7003;64967;50.234;19.224;2024-02-26T13:22:37;7.75;7.00;5.25
76049;PMS7003;64967;50.234;19.224;2024-02-26T13:25:04;7.00;6.75;5.50
76049;PMS7003;64967;50.234;19.224;2024-02-26T13:27:34;9.00;7.50;6.25
76049;PMS7003;64967;50.234;19.224;2024-02-26T13:30:10;8.00;8.00;7.00
76049;PMS7003;64967;50.234;19.224;2024-02-26T13:32:39;6.00;6.00;5.00
76049;PMS7003;64967;50.234;19.224;2024-02-26T13:35:11;5.00;4.50;4.00
76049;PMS7003;64967;50.234;19.224;2024-02-26T13:37:39;12.25;7.25;6.00
76049;PMS7003;64967;50.234;19.224;2024-02-26T13:40:09;4.00;4.00;4.00
76049;PMS7003;64967;50.234;19.224;2024-02-26T13:42:38;4.00;4.00;3.25
76049;PMS7003;64967;50.234;19.224;2024-02-26T13:45:05;4.00;4.00;3.00
76049;PMS7003;64967;50.234;19.224;2024-02-26T13:47:36;4.25;4.25;3.75
76049;PMS7003;64967;50.234;19.224;2024-02-26T13:50:03;4.75;3.75;3.00
76049;PMS7003;64967;50.234;19.224;2024-02-26T13:52:30;3.00;3.00;2.25
76049;PMS7003;64967;50.234;19.224;2024-02-26T13:54:59;3.00;3.00;2.00
76049;PMS7003;64967;50.234;19.224;2024-02-26T13:57:26;3.25;3.00;2.00
76049;PMS7003;64967;50.234;19.224;2024-02-26T13:59:53;4.00;3.25;3.00
76049;PMS7003;64967;50.234;19.224;2024-02-26T14:02:20;4.50;3.75;3.25
76049;PMS7003;64967;50.234;19.224;2024-02-26T14:04:47;3.25;2.50;2.25